createdAt,value
2023-03-11T00:00:06.318Z,-0.7
2023-03-11T00:02:12.495Z,-0.3
2023-03-11T00:04:18.618Z,-0.5
2023-03-11T00:06:24.729Z,-0.7
2023-03-11T00:08:30.927Z,1.2
2023-03-11T00:10:39.914Z,1.1
2023-03-11T00:12:46.058Z,1.1
2023-03-11T00:14:52.210Z,-0.9
2023-03-11T00:17:17.677Z,0.2
2023-03-11T00:19:23.820Z,-0.5
2023-03-11T00:21:30.023Z,-1.1
2023-03-11T00:25:45.212Z,1
2023-03-11T00:27:51.305Z,-0.6
2023-03-11T00:29:57.475Z,-1.1
2023-03-11T00:32:03.585Z,-0.2
2023-03-11T00:34:09.741Z,0.7
2023-03-11T00:36:15.876Z,-0.7
2023-03-11T00:38:24.930Z,1.1
2023-03-11T00:40:31.086Z,-0.8
2023-03-11T00:44:43.360Z,0.3
2023-03-11T00:51:01.802Z,0.1
2023-03-11T00:53:10.866Z,0
2023-03-11T00:55:17.004Z,-0.5
2023-03-11T00:57:23.114Z,-0.3
2023-03-11T00:59:29.284Z,-0.4
2023-03-11T01:01:35.423Z,0.9
2023-03-11T01:03:41.577Z,-0.6
2023-03-11T01:07:56.731Z,-0.5
2023-03-11T01:10:02.887Z,-0.6
2023-03-11T01:13:13.545Z,-0.8
2023-03-11T01:15:19.693Z,-0.6
2023-03-11T01:17:25.820Z,-0.6
2023-03-11T01:19:31.976Z,0.8
2023-03-11T01:21:40.992Z,0.4
2023-03-11T01:23:47.137Z,0.3
2023-03-11T01:25:53.296Z,0
2023-03-11T01:27:59.402Z,-0.2
2023-03-11T01:30:05.581Z,0.5
2023-03-11T01:36:26.917Z,-0.3
2023-03-11T01:38:33.038Z,-1
2023-03-11T01:40:39.205Z,-0.5
2023-03-11T01:44:51.432Z,-0.9
2023-03-11T01:49:03.731Z,-0.3
2023-03-11T01:55:25.027Z,-0.8
2023-03-11T01:57:31.161Z,0.5
2023-03-11T01:59:37.303Z,0.5
2023-03-11T02:01:43.459Z,-0.1
2023-03-11T02:03:49.599Z,-1
2023-03-11T02:05:58.620Z,-0.6
2023-03-11T02:08:04.766Z,-1.2
2023-03-11T02:10:10.865Z,-1.2
2023-03-11T02:11:15.405Z,-1
2023-03-11T02:13:21.542Z,0.1
2023-03-11T02:17:33.801Z,0.1
2023-03-11T02:19:42.832Z,-1.2
2023-03-11T02:21:48.956Z,-0.9
2023-03-11T02:23:55.106Z,0
2023-03-11T02:26:01.250Z,-0.9
2023-03-11T02:28:07.357Z,-0.8
2023-03-11T02:30:13.506Z,-0.4
2023-03-11T02:32:19.710Z,-0.1
2023-03-11T02:34:28.700Z,0.2
2023-03-11T02:36:34.799Z,0.2
2023-03-11T02:38:40.943Z,0.3
2023-03-11T02:40:47.107Z,-1
2023-03-11T02:42:53.210Z,-1.2
2023-03-11T02:44:59.344Z,-1.2
2023-03-11T02:47:05.528Z,-1
2023-03-11T02:49:14.500Z,-0.4
2023-03-11T02:51:20.654Z,-0.2
2023-03-11T02:53:26.809Z,-0.8
2023-03-11T02:55:34.543Z,-1.1
2023-03-11T02:57:40.612Z,-0.6
2023-03-11T03:01:52.867Z,-1.1
2023-03-11T03:04:01.958Z,0
2023-03-11T03:08:14.160Z,-0.8
2023-03-11T03:09:18.671Z,-1
2023-03-11T03:11:24.847Z,0.1
2023-03-11T03:13:30.964Z,-0.8
2023-03-11T03:17:46.226Z,0
2023-03-11T03:19:52.272Z,0.2
2023-03-11T03:24:04.555Z,-1
2023-03-11T03:26:10.692Z,-1.1
2023-03-11T03:28:16.834Z,-0.4
2023-03-11T03:30:22.954Z,-0.3
2023-03-11T03:32:32.007Z,-0.1
2023-03-11T03:36:44.236Z,-0.4
2023-03-11T03:38:50.394Z,-1.3
2023-03-11T03:43:02.649Z,-1.3
2023-03-11T03:51:30.031Z,-1.1
2023-03-11T03:55:42.389Z,-1.6
2023-03-11T04:02:03.630Z,-1.7
2023-03-11T04:06:15.754Z,-0.8
2023-03-11T04:08:35.963Z,-1.1
2023-03-11T04:17:03.407Z,-1.5
2023-03-11T04:19:09.400Z,-0.7
2023-03-11T04:21:15.476Z,-0.7
2023-03-11T04:23:21.574Z,-1.4
2023-03-11T04:25:27.669Z,-1.5
2023-03-11T04:27:33.769Z,-0.6
2023-03-11T04:29:42.763Z,-1.5
2023-03-11T04:31:48.868Z,-1.5
2023-03-11T04:33:54.943Z,-0.6
2023-03-11T04:36:01.104Z,-0.6
2023-03-11T04:38:07.106Z,-1
2023-03-11T04:40:13.213Z,-1.5
2023-03-11T04:42:19.318Z,-0.8
2023-03-11T04:44:28.276Z,-1.2
2023-03-11T04:46:34.437Z,-0.8
2023-03-11T04:48:40.471Z,-1
2023-03-11T04:50:47.150Z,-1.6
2023-03-11T04:52:53.256Z,-1.6
2023-03-11T04:57:05.429Z,-1
2023-03-11T04:59:14.412Z,-1.7
2023-03-11T05:01:20.555Z,-1
2023-03-11T05:03:26.596Z,-1
2023-03-11T05:04:31.113Z,-1.9
2023-03-11T05:06:37.144Z,-1.2
2023-03-11T05:08:43.206Z,-1.5
2023-03-11T05:15:04.323Z,-1.5
2023-03-11T05:17:10.405Z,-1.4
2023-03-11T05:19:16.467Z,-1.7
2023-03-11T05:21:22.541Z,-1.4
2023-03-11T05:25:34.662Z,-1.2
2023-03-11T05:27:43.641Z,-1.5
2023-03-11T05:29:49.703Z,-1.2
2023-03-11T05:31:55.753Z,-1.3
2023-03-11T05:34:01.845Z,-1.6
2023-03-11T05:36:07.927Z,-1.5
2023-03-11T05:38:13.991Z,-1.4
2023-03-11T05:40:20.070Z,-1.6
2023-03-11T05:44:35.085Z,-2.2
2023-03-11T05:46:41.271Z,-2.2
2023-03-11T05:48:47.202Z,-1.4
2023-03-11T05:50:53.246Z,-2.2
2023-03-11T05:52:59.303Z,-1.5
2023-03-11T05:55:05.362Z,-1.7
2023-03-11T05:57:14.288Z,-1.8
2023-03-11T05:59:20.341Z,-2.2
2023-03-11T06:01:26.398Z,-2.3
2023-03-11T06:04:37.134Z,-1.9
2023-03-11T06:06:42.977Z,-1.9
2023-03-11T06:08:48.990Z,-1.9
2023-03-11T06:10:58.051Z,-2
2023-03-11T06:13:03.998Z,-1.9
2023-03-11T06:15:10.037Z,-1.9
2023-03-11T06:17:16.068Z,-2
2023-03-11T06:19:22.112Z,-1.9
2023-03-11T06:21:28.129Z,-1.9
2023-03-11T06:23:34.175Z,-1.9
2023-03-11T06:25:43.123Z,-1.8
2023-03-11T06:27:49.152Z,-1.7
2023-03-11T06:29:55.197Z,-1.7
2023-03-11T06:32:01.211Z,-1.7
2023-03-11T06:34:07.244Z,-1.7
2023-03-11T06:36:13.318Z,-1.7
2023-03-11T06:38:19.321Z,-1.6
2023-03-11T06:40:28.335Z,-1.5
2023-03-11T06:42:34.317Z,-1.5
2023-03-11T06:44:40.337Z,-1.4
2023-03-11T06:48:52.465Z,-1.3
2023-03-11T06:50:58.469Z,-1.2
2023-03-11T06:53:04.487Z,-1.2
2023-03-11T06:55:13.442Z,-1.1
2023-03-11T07:00:30.158Z,-1
2023-03-11T07:04:42.090Z,-0.8
2023-03-11T07:08:57.091Z,-0.7
2023-03-11T07:11:03.160Z,-0.7
2023-03-11T07:13:09.202Z,-0.6
2023-03-11T07:15:15.518Z,-0.5
2023-03-11T07:17:21.341Z,-0.5
2023-03-11T07:19:27.378Z,-0.4
2023-03-11T07:21:33.455Z,-0.3
2023-03-11T07:23:42.451Z,-0.2
2023-03-11T07:25:48.532Z,-0.2
2023-03-11T07:27:54.585Z,-0.1
2023-03-11T07:30:00.676Z,1.2
2023-03-11T07:32:06.767Z,3.6
2023-03-11T07:34:12.885Z,4.9
2023-03-11T07:36:18.903Z,5.4
2023-03-11T07:38:27.899Z,5.7
2023-03-11T07:40:33.973Z,5.8
2023-03-11T07:42:40.088Z,6.1
2023-03-11T07:44:46.165Z,6
2023-03-11T07:46:52.290Z,6.1
2023-03-11T07:51:04.502Z,6.4
2023-03-11T07:53:13.521Z,6.3
2023-03-11T07:59:51.611Z,6.4
2023-03-11T08:01:57.741Z,6.3
2023-03-11T08:04:03.876Z,5.8
2023-03-11T08:06:12.950Z,5.6
2023-03-11T08:08:19.085Z,5.6
2023-03-11T08:10:25.278Z,5.4
2023-03-11T08:12:31.416Z,4.9
2023-03-11T08:14:37.571Z,4.8
2023-03-11T08:16:43.749Z,4.8
2023-03-11T08:18:49.916Z,4.9
2023-03-11T08:20:59.000Z,4.6
2023-03-11T08:23:05.178Z,4.6
2023-03-11T08:25:11.347Z,4.5
2023-03-11T08:27:17.536Z,4.4
2023-03-11T08:29:23.695Z,4
2023-03-11T08:33:36.096Z,3.3
2023-03-11T08:35:45.232Z,3
2023-03-11T08:37:51.425Z,2.9
2023-03-11T08:39:57.583Z,2.9
2023-03-11T08:42:03.786Z,3
2023-03-11T08:44:09.994Z,3.1
2023-03-11T08:46:16.228Z,3.2
2023-03-11T08:48:22.407Z,3.1
2023-03-11T08:50:33.462Z,3.3
2023-03-11T08:52:37.720Z,3.1
2023-03-11T09:00:02.510Z,3.1
2023-03-11T09:08:30.286Z,3.3
2023-03-11T09:12:42.774Z,3.6
2023-03-11T09:14:48.957Z,3.5
2023-03-11T09:16:55.195Z,3.4
2023-03-11T09:21:10.558Z,3.5
2023-03-11T09:23:16.819Z,3.4
2023-03-11T09:25:23.034Z,3.7
2023-03-11T09:29:35.549Z,3.7
2023-03-11T09:31:41.838Z,3.7
2023-03-11T09:33:50.890Z,3.6
2023-03-11T09:35:57.215Z,3.7
2023-03-11T09:38:03.388Z,3.7
2023-03-11T09:40:09.669Z,3.7
2023-03-11T09:48:37.322Z,4.1
2023-03-11T09:50:43.640Z,4.1
2023-03-11T09:52:49.705Z,4.2
2023-03-11T09:53:54.184Z,4.2
2023-03-11T09:56:00.407Z,4.1
2023-03-11T09:58:06.509Z,4.5
2023-03-11T10:02:21.795Z,4.6
2023-03-11T10:04:27.818Z,4.6
2023-03-11T10:06:33.995Z,4.1
2023-03-11T10:08:40.177Z,4.3
2023-03-11T10:10:46.376Z,4.2
2023-03-11T10:12:52.617Z,4.5
2023-03-11T10:14:58.733Z,4.4
2023-03-11T10:17:07.740Z,4.5
2023-03-11T10:19:13.944Z,4.6
2023-03-11T10:21:20.129Z,4.8
2023-03-11T10:23:26.332Z,5.1
2023-03-11T10:25:32.559Z,5
2023-03-11T10:27:41.528Z,5.3
2023-03-11T10:29:44.926Z,5.3
2023-03-11T10:34:00.209Z,4.8
2023-03-11T10:36:06.474Z,5.2
2023-03-11T10:38:12.645Z,4.9
2023-03-11T10:40:18.863Z,4.7
2023-03-11T10:44:31.321Z,4.6
2023-03-11T10:46:40.323Z,4.7
2023-03-11T10:48:46.543Z,4.8
2023-03-11T10:50:52.994Z,5.4
2023-03-11T10:54:03.530Z,5.4
2023-03-11T10:58:15.909Z,5.4
2023-03-11T11:02:31.174Z,5.6
2023-03-11T11:04:37.453Z,5.9
2023-03-11T11:06:43.609Z,6
2023-03-11T11:08:49.815Z,6
2023-03-11T11:10:56.015Z,6.2
2023-03-11T11:13:02.319Z,6.4
2023-03-11T11:15:11.295Z,6.6
2023-03-11T11:17:17.495Z,6.5
2023-03-11T11:19:23.694Z,6.6
2023-03-11T11:21:29.928Z,7.1
2023-03-11T11:23:36.185Z,7.3
2023-03-11T11:25:42.350Z,8.3
2023-03-11T11:27:48.579Z,7.6
2023-03-11T11:29:57.592Z,8.6
2023-03-11T11:32:03.838Z,8.7
2023-03-11T11:34:10.040Z,8.2
2023-03-11T11:36:16.269Z,8.9
2023-03-11T11:38:22.506Z,8.2
2023-03-11T11:40:28.706Z,8.6
2023-03-11T11:42:34.933Z,9
2023-03-11T11:44:44.031Z,9.7
2023-03-11T11:46:50.231Z,9.1
2023-03-11T11:57:43.821Z,10.1
2023-03-11T11:59:50.071Z,9.9
2023-03-11T12:01:56.281Z,9.4
2023-03-11T12:04:02.561Z,9.8
2023-03-11T12:06:08.751Z,10.3
2023-03-11T12:08:15.005Z,10.8
2023-03-11T12:10:23.323Z,9.3
2023-03-11T12:12:30.263Z,10.7
2023-03-11T12:14:36.520Z,11.2
2023-03-11T12:18:48.985Z,10.9
2023-03-11T12:20:55.245Z,11.8
2023-03-11T12:23:01.472Z,12
2023-03-11T12:29:23.035Z,11.5
2023-03-11T12:33:35.538Z,12.4
2023-03-11T12:35:41.785Z,11.2
2023-03-11T12:37:48.050Z,10.3
2023-03-11T12:39:54.273Z,10.5
2023-03-11T12:42:03.356Z,8.8
2023-03-11T12:44:09.606Z,8.7
2023-03-11T12:46:15.862Z,8.8
2023-03-11T12:47:20.408Z,9.6
2023-03-11T12:55:48.198Z,9.1
2023-03-11T12:57:54.463Z,9.3
2023-03-11T13:00:00.767Z,9.4
2023-03-11T13:04:13.210Z,8.9
2023-03-11T13:06:19.484Z,8.5
2023-03-11T13:10:34.779Z,8.2
2023-03-11T13:12:41.031Z,8.6
2023-03-11T13:14:47.264Z,9.2
2023-03-11T13:16:53.554Z,9.1
2023-03-11T13:18:59.802Z,8.4
2023-03-11T13:21:06.043Z,8
2023-03-11T13:23:12.288Z,7.1
2023-03-11T13:25:21.340Z,8.3
2023-03-11T13:27:27.592Z,8.6
2023-03-11T13:31:40.229Z,8.4
2023-03-11T13:33:46.370Z,8.5
2023-03-11T13:35:52.630Z,8.2
2023-03-11T13:37:58.836Z,8
2023-03-11T13:40:07.937Z,7.8
2023-03-11T13:42:14.148Z,7.7
2023-03-11T13:47:31.174Z,7.7
2023-03-11T13:49:37.406Z,8.3
2023-03-11T13:51:43.690Z,7.3
2023-03-11T13:53:52.756Z,6.4
2023-03-11T13:58:05.256Z,6.6
2023-03-11T14:00:11.499Z,6.8
2023-03-11T14:06:30.209Z,8.2
2023-03-11T14:08:39.285Z,8.5
2023-03-11T14:10:45.502Z,8.2
2023-03-11T14:17:04.241Z,9.2
2023-03-11T14:19:10.514Z,9.4
2023-03-11T14:21:16.739Z,9
2023-03-11T14:23:25.815Z,8.3
2023-03-11T14:25:32.084Z,8.4
2023-03-11T14:27:38.286Z,9
2023-03-11T14:29:44.558Z,8.7
2023-03-11T14:31:50.808Z,8.1
2023-03-11T14:33:57.054Z,7.8
2023-03-11T14:36:03.355Z,7.7
2023-03-11T14:38:12.348Z,7.2
2023-03-11T14:40:18.616Z,7
2023-03-11T14:42:24.860Z,7.2
2023-03-11T14:43:29.382Z,7.2
2023-03-11T14:45:35.694Z,7.2
2023-03-11T14:47:41.877Z,7
2023-03-11T14:58:15.936Z,7.6
2023-03-11T15:00:22.176Z,7.3
2023-03-11T15:02:30.038Z,7.2
2023-03-11T15:06:45.249Z,7.4
2023-03-11T15:08:51.482Z,7.5
2023-03-11T15:13:03.970Z,7.7
2023-03-11T15:15:10.246Z,7.6
2023-03-11T15:19:22.707Z,7.6
2023-03-11T15:21:31.772Z,8.2
2023-03-11T15:23:37.992Z,8.4
2023-03-11T15:27:50.510Z,8.7
2023-03-11T15:32:02.980Z,8.8
2023-03-11T15:36:18.293Z,7.8
2023-03-11T15:38:24.541Z,7.8
2023-03-11T15:40:44.609Z,7.7
2023-03-11T15:42:56.473Z,7.9
2023-03-11T15:45:02.713Z,8
2023-03-11T15:47:08.960Z,8.3
2023-03-11T15:49:17.993Z,8.6
2023-03-11T15:51:24.262Z,8.9
2023-03-11T15:53:30.511Z,8.8
2023-03-11T15:55:36.747Z,8.6
2023-03-11T15:57:42.999Z,8.9
2023-03-11T15:59:49.242Z,8.6
2023-03-11T16:04:04.636Z,8.3
2023-03-11T16:06:10.824Z,8.2
2023-03-11T16:08:17.119Z,7.7
2023-03-11T16:10:23.336Z,7.7
2023-03-11T16:14:35.889Z,7.6
2023-03-11T16:16:42.098Z,7.1
2023-03-11T16:18:51.168Z,7.1
2023-03-11T16:20:57.408Z,7.4
2023-03-11T16:23:03.666Z,8
2023-03-11T16:25:09.900Z,9.1
2023-03-11T16:29:22.939Z,8.8
2023-03-11T16:33:38.243Z,8.4
2023-03-11T16:35:44.583Z,8.7
2023-03-11T16:37:50.750Z,9.3
2023-03-11T16:38:55.270Z,9.1
2023-03-11T16:41:01.567Z,8.4
2023-03-11T16:43:07.795Z,7.7
2023-03-11T16:45:14.047Z,7.5
2023-03-11T16:47:23.125Z,6.9
2023-03-11T16:49:29.349Z,6.7
2023-03-11T16:51:35.614Z,6.4
2023-03-11T16:53:41.884Z,6.1
2023-03-11T16:55:48.107Z,5.8
2023-03-11T16:57:54.342Z,5.6
2023-03-11T17:00:00.581Z,5.4
2023-03-11T17:02:09.695Z,5.3
2023-03-11T17:04:15.835Z,5.2
2023-03-11T17:06:22.086Z,5.2
2023-03-11T17:12:40.759Z,5
2023-03-11T17:14:46.958Z,4.9
2023-03-11T17:16:56.110Z,4.7
2023-03-11T17:21:08.503Z,4.5
2023-03-11T17:25:20.991Z,4.3
2023-03-11T17:33:48.945Z,3.9
2023-03-11T17:35:55.278Z,3.8
2023-03-11T17:41:12.334Z,3.7
2023-03-11T17:43:18.654Z,3.5
2023-03-11T17:45:27.795Z,3.4
2023-03-11T17:49:40.341Z,3.3
2023-03-11T17:51:46.545Z,3.3
2023-03-11T17:53:52.801Z,3.2
2023-03-11T17:55:59.042Z,3.1
2023-03-11T17:58:05.329Z,3
2023-03-11T18:00:14.435Z,2.7
2023-03-11T18:02:20.851Z,2.8
2023-03-11T18:12:51.901Z,2.4
2023-03-11T18:15:01.054Z,2.3
2023-03-11T18:19:13.443Z,2.2
2023-03-11T18:23:25.880Z,2
2023-03-11T18:25:32.085Z,1.9
2023-03-11T18:27:38.312Z,1.8
2023-03-11T18:29:47.436Z,1.9
2023-03-11T18:31:53.729Z,1.9
2023-03-11T18:33:59.845Z,1.9
2023-03-11T18:35:04.375Z,1.8
2023-03-11T18:39:16.830Z,1.8
2023-03-11T18:41:23.003Z,1.8
2023-03-11T18:43:32.111Z,1.7
2023-03-11T18:45:38.348Z,1.7
2023-03-11T18:47:44.495Z,1.7
2023-03-11T18:49:50.675Z,1.7
2023-03-11T18:51:56.863Z,1.6
2023-03-11T18:54:03.077Z,1.6
2023-03-11T18:56:09.246Z,1.6
2023-03-11T18:58:18.348Z,1.6
2023-03-11T19:02:30.697Z,1.6
2023-03-11T19:10:55.451Z,1.7
2023-03-11T19:17:16.923Z,1.8
2023-03-11T19:23:35.445Z,1.6
2023-03-11T19:25:50.633Z,1.6
2023-03-11T19:27:50.741Z,1.5
2023-03-11T19:29:56.904Z,1.5
2023-03-11T19:32:03.659Z,1.5
2023-03-11T19:38:41.502Z,1.5
2023-03-11T19:40:50.574Z,1.4
2023-03-11T19:42:56.811Z,1.4
2023-03-11T19:49:15.318Z,1.4
2023-03-11T19:51:21.464Z,1.3
2023-03-11T19:53:27.671Z,1.3
2023-03-11T19:55:36.749Z,1.2
2023-03-11T19:57:42.925Z,1.1
2023-03-11T19:59:49.087Z,1.1
2023-03-11T20:01:55.267Z,1
2023-03-11T20:04:01.433Z,1
2023-03-11T20:06:07.696Z,1
2023-03-11T20:10:22.942Z,0.9
2023-03-11T20:12:28.964Z,0.9
2023-03-11T20:16:41.397Z,0.7
2023-03-11T20:20:53.644Z,0.6
2023-03-11T20:27:15.072Z,0.5
2023-03-11T20:29:21.173Z,0.4
2023-03-11T20:32:31.944Z,0.4
2023-03-11T20:36:44.104Z,0.3
2023-03-11T20:40:59.362Z,0.2
2023-03-11T20:43:05.420Z,0.1
2023-03-11T20:45:11.574Z,0.1
2023-03-11T20:55:45.118Z,-0.1
2023-03-11T20:59:57.426Z,-0.2
2023-03-11T21:02:03.465Z,-0.1
2023-03-11T21:04:09.551Z,-0.1
2023-03-11T21:10:32.407Z,-0.1
2023-03-11T21:16:50.741Z,-0.2
2023-03-11T21:21:02.859Z,-0.2
2023-03-11T22:08:33.837Z,0.1
2023-03-11T22:10:39.876Z,0.1
2023-03-11T22:14:52.144Z,0.1
2023-03-11T22:19:04.574Z,0.1
2023-03-11T22:21:13.590Z,0.1
2023-03-11T22:23:19.648Z,0.2
2023-03-11T22:26:30.302Z,0.1
2023-03-11T22:28:36.454Z,0.1
2023-03-11T22:30:42.592Z,0.1
2023-03-11T22:32:48.778Z,0.2
2023-03-11T22:34:57.744Z,0.1
2023-03-11T22:39:10.046Z,0.1
2023-03-11T22:41:16.181Z,0
2023-03-11T22:43:22.325Z,0.1
2023-03-11T22:45:28.471Z,0.1
2023-03-11T22:47:34.596Z,0.1
2023-03-11T22:49:43.660Z,0.1
2023-03-11T22:51:49.777Z,0.1
2023-03-11T22:53:55.963Z,0.1
2023-03-11T22:56:02.055Z,0.1
2023-03-11T22:58:08.201Z,0.1
2023-03-11T23:00:14.392Z,0.1
2023-03-11T23:02:20.519Z,0.2
2023-03-11T23:04:29.525Z,0.2
2023-03-11T23:06:35.655Z,0.2
2023-03-11T23:08:41.817Z,0.2
2023-03-11T23:10:48.118Z,0.2
2023-03-11T23:12:54.096Z,0.2
2023-03-11T23:15:00.240Z,0.2
2023-03-11T23:17:06.416Z,0.2
2023-03-11T23:19:15.827Z,0.3
2023-03-11T23:21:21.568Z,0.3
2023-03-11T23:23:27.712Z,0.3
2023-03-11T23:25:53.812Z,0.3
2023-03-11T23:27:59.900Z,0.3
2023-03-11T23:32:15.292Z,0.3
2023-03-11T23:34:21.267Z,0.4
2023-03-11T23:36:27.434Z,0.4
2023-03-11T23:40:39.713Z,0.3
2023-03-11T23:42:45.869Z,0.3
2023-03-11T23:44:52.022Z,0.3
2023-03-11T23:47:01.070Z,0.3
2023-03-11T23:49:07.225Z,0.3
2023-03-11T23:51:13.375Z,0.2
2023-03-11T23:53:19.520Z,0.2
2023-03-11T23:55:25.669Z,0.2
2023-03-11T23:57:31.830Z,0.2
2023-03-11T23:59:37.969Z,0.2
